Time;durP1;ratioP1;P1;durP2;ratioP2;P2;SDS_P1;SDS_P2;PMS_P1;PMS_P2;Temp;Humidity;BMP_temperature;BMP_pressure;BME280_temperature;BME280_humidity;BME280_pressure;Samples;Min_cycle;Max_cycle;Signal;HPM_P1;HPM_P2
2023/12/30 00:00:52;;;;;;;8.35;1.63;;;;;;;;;;5111681;28;20504;-67
2023/12/30 00:03:18;;;;;;;10.30;1.55;;;;;;;;;;5112129;28;20032;-67
2023/12/30 00:05:44;;;;;;;11.38;1.80;;;;;;;;;;5112156;28;20035;-67
2023/12/30 00:08:10;;;;;;;9.88;1.48;;;;;;;;;;5110128;28;20497;-67
2023/12/30 00:10:36;;;;;;;10.82;1.70;;;;;;;;;;5111903;28;20039;-67
2023/12/30 00:13:03;;;;;;;12.88;1.48;;;;;;;;;;5112058;28;20047;-67
2023/12/30 00:15:29;;;;;;;8.77;1.70;;;;;;;;;;5111425;28;20039;-67
2023/12/30 00:17:55;;;;;;;5.00;1.25;;;;;;;;;;5111840;28;20050;-67
2023/12/30 00:20:21;;;;;;;6.13;1.27;;;;;;;;;;5094028;28;20264;-67
2023/12/30 00:22:47;;;;;;;9.15;1.67;;;;;;;;;;5091426;28;20042;-67
2023/12/30 00:25:13;;;;;;;9.25;1.60;;;;;;;;;;5093407;28;20040;-67
2023/12/30 00:27:39;;;;;;;6.35;1.20;;;;;;;;;;5111871;28;20361;-67
2023/12/30 00:30:05;;;;;;;13.50;1.67;;;;;;;;;;5111161;28;20040;-67
2023/12/30 00:32:32;;;;;;;9.27;1.42;;;;;;;;;;5111530;28;20050;-67
2023/12/30 00:34:58;;;;;;;7.72;1.45;;;;;;;;;;5111532;28;20458;-67
2023/12/30 00:37:24;;;;;;;13.88;1.85;;;;;;;;;;5109689;28;20406;-67
2023/12/30 00:39:51;;;;;;;13.95;2.25;;;;;;;;;;5109745;28;20043;-67
2023/12/30 00:42:17;;;;;;;11.35;1.92;;;;;;;;;;5111343;28;20632;-67
2023/12/30 00:44:43;;;;;;;10.43;1.20;;;;;;;;;;5110834;28;20088;-67
2023/12/30 00:47:09;;;;;;;11.80;1.80;;;;;;;;;;5110823;28;20413;-67
2023/12/30 00:49:35;;;;;;;8.50;1.30;;;;;;;;;;5111047;28;20039;-67
2023/12/30 00:52:01;;;;;;;9.45;1.92;;;;;;;;;;5110839;28;20036;-67
2023/12/30 00:54:27;;;;;;;9.82;1.70;;;;;;;;;;5111181;28;20447;-67
2023/12/30 00:56:53;;;;;;;13.38;2.10;;;;;;;;;;5110887;28;20036;-67
2023/12/30 00:59:19;;;;;;;7.60;1.48;;;;;;;;;;5110478;28;20051;-67
2023/12/30 01:01:45;;;;;;;7.30;1.40;;;;;;;;;;5110991;28;20036;-67
2023/12/30 01:04:12;;;;;;;5.05;1.10;;;;;;;;;;5110632;28;20035;-67
2023/12/30 01:06:38;;;;;;;6.60;1.27;;;;;;;;;;5109989;28;20040;-67
2023/12/30 01:09:04;;;;;;;11.23;2.05;;;;;;;;;;5110949;28;20094;-67
2023/12/30 01:11:30;;;;;;;10.98;2.10;;;;;;;;;;5110585;28;20039;-67
2023/12/30 01:13:56;;;;;;;7.93;1.50;;;;;;;;;;5110094;28;20474;-67
2023/12/30 01:16:22;;;;;;;10.15;1.50;;;;;;;;;;5110762;28;20040;-67
2023/12/30 01:18:48;;;;;;;8.05;1.20;;;;;;;;;;5106022;28;20294;-67
2023/12/30 01:21:14;;;;;;;8.82;1.73;;;;;;;;;;5090044;28;20390;-67
2023/12/30 01:23:40;;;;;;;7.10;1.30;;;;;;;;;;5088711;28;20089;-67
2023/12/30 01:26:06;;;;;;;11.68;1.80;;;;;;;;;;5099712;28;20594;-67
2023/12/30 01:28:34;;;;;;;8.40;1.80;;;;;;;;;;5110165;28;20050;-67
2023/12/30 01:31:00;;;;;;;11.07;2.63;;;;;;;;;;5110340;28;20047;-67
2023/12/30 01:33:26;;;;;;;7.40;1.60;;;;;;;;;;5110431;28;20040;-67
2023/12/30 01:35:52;;;;;;;7.70;1.25;;;;;;;;;;5109835;28;20086;-67
2023/12/30 01:38:18;;;;;;;10.82;2.05;;;;;;;;;;5109944;28;20078;-67
2023/12/30 01:40:44;;;;;;;7.30;1.25;;;;;;;;;;5108808;28;20027;-67
2023/12/30 01:43:25;;;;;;;7.72;1.40;;;;;;;;;;5109904;28;20233;-67
2023/12/30 01:46:03;;;;;;;10.82;1.55;;;;;;;;;;5110085;28;20051;-67
2023/12/30 01:48:29;;;;;;;7.63;1.50;;;;;;;;;;5109823;28;20054;-67
2023/12/30 01:50:59;;;;;;;13.05;1.65;;;;;;;;;;5109601;28;20043;-67
2023/12/30 01:53:26;;;;;;;8.55;1.42;;;;;;;;;;5110162;28;20043;-67
2023/12/30 01:55:53;;;;;;;10.43;1.73;;;;;;;;;;5110505;28;20053;-67
2023/12/30 01:58:20;;;;;;;11.43;1.70;;;;;;;;;;5109282;28;20520;-67
2023/12/30 02:00:49;;;;;;;7.90;1.30;;;;;;;;;;5110026;28;20054;-67
2023/12/30 02:03:17;;;;;;;13.98;1.55;;;;;;;;;;5110029;28;20131;-67
2023/12/30 02:05:43;;;;;;;8.48;1.35;;;;;;;;;;5108351;28;20046;-67
2023/12/30 02:08:10;;;;;;;11.00;1.70;;;;;;;;;;5109688;28;20238;-67
2023/12/30 02:10:36;;;;;;;11.05;1.55;;;;;;;;;;5110191;28;20043;-67
2023/12/30 02:13:02;;;;;;;8.07;1.45;;;;;;;;;;5109743;28;20599;-67
2023/12/30 02:15:28;;;;;;;9.32;1.55;;;;;;;;;;5110077;28;20067;-67
2023/12/30 02:17:56;;;;;;;8.48;1.73;;;;;;;;;;5109637;28;20537;-67
2023/12/30 02:20:22;;;;;;;8.65;1.35;;;;;;;;;;5094578;28;20082;-67
2023/12/30 02:22:48;;;;;;;5.57;1.42;;;;;;;;;;5093343;28;20074;-67
2023/12/30 02:25:15;;;;;;;7.03;1.50;;;;;;;;;;5095870;28;20525;-67
2023/12/30 02:27:45;;;;;;;12.57;1.60;;;;;;;;;;5113148;28;20043;-67
2023/12/30 02:30:11;;;;;;;6.85;1.33;;;;;;;;;;5113590;28;20461;-67
2023/12/30 02:32:37;;;;;;;7.47;1.65;;;;;;;;;;5113822;28;20047;-67
2023/12/30 02:35:03;;;;;;;9.73;1.35;;;;;;;;;;5113435;28;20523;-67
2023/12/30 02:37:29;;;;;;;10.90;1.50;;;;;;;;;;5113542;28;20040;-67
2023/12/30 02:39:55;;;;;;;10.43;1.58;;;;;;;;;;5113844;28;20512;-67
2023/12/30 02:42:21;;;;;;;12.40;1.75;;;;;;;;;;5113037;28;20051;-67
2023/12/30 02:44:47;;;;;;;14.07;1.63;;;;;;;;;;5113525;28;20173;-67
2023/12/30 02:47:13;;;;;;;10.68;1.90;;;;;;;;;;5113608;28;20119;-67
2023/12/30 02:49:43;;;;;;;6.38;1.52;;;;;;;;;;5111491;28;20570;-67
2023/12/30 02:52:09;;;;;;;12.23;2.05;;;;;;;;;;5113626;28;20385;-67
2023/12/30 02:54:36;;;;;;;9.80;1.98;;;;;;;;;;5113538;28;20039;-67
2023/12/30 02:57:05;;;;;;;8.65;1.52;;;;;;;;;;5112858;28;20032;-67
2023/12/30 02:59:32;;;;;;;6.32;1.45;;;;;;;;;;5113326;28;20048;-67
2023/12/30 03:01:58;;;;;;;8.32;1.73;;;;;;;;;;5113365;28;20117;-67
2023/12/30 03:04:24;;;;;;;6.90;1.30;;;;;;;;;;5112888;28;20523;-67
2023/12/30 03:06:50;;;;;;;11.23;1.55;;;;;;;;;;5113249;28;20112;-67
2023/12/30 03:09:16;;;;;;;19.13;1.85;;;;;;;;;;5113012;28;20444;-67
2023/12/30 03:11:42;;;;;;;17.90;2.28;;;;;;;;;;5112677;28;20055;-67
2023/12/30 03:14:08;;;;;;;9.13;1.73;;;;;;;;;;5113042;28;20039;-67
2023/12/30 03:16:35;;;;;;;11.13;2.13;;;;;;;;;;5112795;28;20044;-67
2023/12/30 03:19:01;;;;;;;11.60;2.25;;;;;;;;;;5106498;28;20024;-67
2023/12/30 03:21:27;;;;;;;13.35;1.73;;;;;;;;;;5092525;28;20414;-67
2023/12/30 03:23:54;;;;;;;11.63;1.83;;;;;;;;;;5092531;28;20126;-67
2023/12/30 03:26:20;;;;;;;13.02;1.63;;;;;;;;;;5103503;28;20076;-67
2023/12/30 03:28:46;;;;;;;13.25;2.15;;;;;;;;;;5112238;28;20118;-67
2023/12/30 03:31:25;;;;;;;11.40;2.03;;;;;;;;;;5111096;28;20043;-67
2023/12/30 03:33:51;;;;;;;14.20;1.90;;;;;;;;;;5111351;28;20039;-67
2023/12/30 03:36:17;;;;;;;12.32;1.55;;;;;;;;;;5111310;28;20420;-67
2023/12/30 03:38:43;;;;;;;8.70;2.50;;;;;;;;;;5112459;28;20067;-67
2023/12/30 03:41:09;;;;;;;9.48;1.80;;;;;;;;;;5112385;28;20094;-67
2023/12/30 03:43:35;;;;;;;6.60;1.48;;;;;;;;;;5112260;28;20127;-67
2023/12/30 03:46:01;;;;;;;12.27;2.17;;;;;;;;;;5112591;28;20119;-67
2023/12/30 03:48:27;;;;;;;12.63;1.77;;;;;;;;;;5112334;28;20047;-67
2023/12/30 03:50:53;;;;;;;12.93;1.77;;;;;;;;;;5112080;28;20047;-67
2023/12/30 03:53:19;;;;;;;13.30;1.85;;;;;;;;;;5112546;28;20051;-67
2023/12/30 03:55:45;;;;;;;9.80;1.55;;;;;;;;;;5112343;28;20048;-67
2023/12/30 03:58:11;;;;;;;10.82;1.73;;;;;;;;;;5110189;28;20131;-67
2023/12/30 04:00:37;;;;;;;7.60;1.80;;;;;;;;;;5112061;28;20192;-67
2023/12/30 04:03:04;;;;;;;7.90;1.70;;;;;;;;;;5112242;28;20047;-67
2023/12/30 04:05:30;;;;;;;10.95;1.67;;;;;;;;;;5111771;28;20043;-67
2023/12/30 04:07:56;;;;;;;9.48;1.75;;;;;;;;;;5112049;28;20371;-67
2023/12/30 04:10:22;;;;;;;12.68;1.42;;;;;;;;;;5111887;28;20082;-67
2023/12/30 04:12:48;;;;;;;13.70;1.85;;;;;;;;;;5111478;28;20040;-67
2023/12/30 04:15:14;;;;;;;11.90;2.13;;;;;;;;;;5111931;28;20314;-67
2023/12/30 04:17:40;;;;;;;14.45;1.67;;;;;;;;;;5111868;28;20197;-67
2023/12/30 04:20:06;;;;;;;15.82;1.90;;;;;;;;;;5094494;28;20497;-67
2023/12/30 04:22:32;;;;;;;7.65;1.60;;;;;;;;;;5090206;28;20241;-67
2023/12/30 04:24:58;;;;;;;11.05;1.80;;;;;;;;;;5091402;28;20040;-67
2023/12/30 04:27:24;;;;;;;8.93;1.95;;;;;;;;;;5090890;28;20043;-67
2023/12/30 04:29:50;;;;;;;10.00;1.73;;;;;;;;;;5090854;28;20574;-67
2023/12/30 04:32:16;;;;;;;10.52;1.67;;;;;;;;;;5091308;28;20391;-67
2023/12/30 04:34:42;;;;;;;11.65;1.73;;;;;;;;;;5090728;28;20042;-67
2023/12/30 04:37:08;;;;;;;13.27;1.75;;;;;;;;;;5091035;28;20040;-67
2023/12/30 04:39:34;;;;;;;10.85;1.75;;;;;;;;;;5090613;28;20043;-67
2023/12/30 04:42:00;;;;;;;11.27;1.83;;;;;;;;;;5089633;28;20035;-67
2023/12/30 04:44:26;;;;;;;11.20;1.40;;;;;;;;;;5090774;28;20043;-67
2023/12/30 04:46:52;;;;;;;11.57;1.50;;;;;;;;;;5089682;28;20036;-67
2023/12/30 04:49:18;;;;;;;11.98;1.98;;;;;;;;;;5090062;28;20515;-67
2023/12/30 04:51:44;;;;;;;11.10;1.38;;;;;;;;;;5090891;28;20084;-67
2023/12/30 04:54:10;;;;;;;10.65;1.90;;;;;;;;;;5090579;28;20043;-67
2023/12/30 04:56:36;;;;;;;11.73;1.88;;;;;;;;;;5090535;28;20036;-67
2023/12/30 04:59:02;;;;;;;14.95;2.13;;;;;;;;;;5090192;28;20056;-67
2023/12/30 05:01:31;;;;;;;11.07;1.80;;;;;;;;;;5090705;28;20040;-67
2023/12/30 05:03:57;;;;;;;12.32;2.00;;;;;;;;;;5090362;28;20104;-67
2023/12/30 05:06:24;;;;;;;12.48;1.95;;;;;;;;;;5089134;28;20032;-67
2023/12/30 05:08:50;;;;;;;13.02;2.15;;;;;;;;;;5090420;28;20068;-67
2023/12/30 05:11:16;;;;;;;11.75;1.98;;;;;;;;;;5090252;28;20051;-67
2023/12/30 05:13:43;;;;;;;12.07;1.52;;;;;;;;;;5090481;28;20228;-67
2023/12/30 05:16:09;;;;;;;13.60;1.88;;;;;;;;;;5090243;28;20048;-67
2023/12/30 05:18:35;;;;;;;12.20;1.80;;;;;;;;;;5092564;28;20036;-67
2023/12/30 05:21:01;;;;;;;17.20;2.65;;;;;;;;;;5110602;28;20051;-67
2023/12/30 05:23:27;;;;;;;12.82;1.83;;;;;;;;;;5110705;28;20047;-67
2023/12/30 05:25:53;;;;;;;13.38;2.10;;;;;;;;;;5102440;28;20110;-67
2023/12/30 05:28:19;;;;;;;15.98;2.25;;;;;;;;;;5090069;28;20055;-67
2023/12/30 05:30:45;;;;;;;18.13;3.15;;;;;;;;;;5090040;28;20047;-67
2023/12/30 05:33:11;;;;;;;10.52;1.88;;;;;;;;;;5089804;28;20282;-67
2023/12/30 05:35:39;;;;;;;12.65;2.05;;;;;;;;;;5090220;28;20124;-67
2023/12/30 05:38:05;;;;;;;12.00;1.88;;;;;;;;;;5088881;28;20048;-67
2023/12/30 05:40:31;;;;;;;13.18;2.08;;;;;;;;;;5089338;28;20036;-67
2023/12/30 05:42:57;;;;;;;14.95;1.80;;;;;;;;;;5089798;28;20044;-67
2023/12/30 05:45:23;;;;;;;15.23;2.40;;;;;;;;;;5089978;28;20042;-67
2023/12/30 05:47:49;;;;;;;9.88;1.50;;;;;;;;;;5089292;28;20082;-67
2023/12/30 05:50:16;;;;;;;14.02;2.30;;;;;;;;;;5088085;28;20044;-67
2023/12/30 05:52:42;;;;;;;12.52;2.03;;;;;;;;;;5089708;28;20043;-67
2023/12/30 05:55:08;;;;;;;13.63;2.95;;;;;;;;;;5089190;28;20448;-67
2023/12/30 05:57:34;;;;;;;14.35;2.28;;;;;;;;;;5089694;28;20563;-67
2023/12/30 06:00:00;;;;;;;11.10;1.60;;;;;;;;;;5089748;28;20127;-67
2023/12/30 06:02:26;;;;;;;11.60;1.75;;;;;;;;;;5089414;28;20043;-67
2023/12/30 06:04:52;;;;;;;19.30;2.33;;;;;;;;;;5089748;28;20040;-67
2023/12/30 06:07:18;;;;;;;16.35;2.22;;;;;;;;;;5089401;28;20387;-67
2023/12/30 06:09:44;;;;;;;14.57;1.83;;;;;;;;;;5089085;28;20039;-67
2023/12/30 06:12:10;;;;;;;13.85;1.92;;;;;;;;;;5089466;28;20046;-67
2023/12/30 06:14:36;;;;;;;15.60;1.98;;;;;;;;;;5089487;28;20032;-67
2023/12/30 06:17:03;;;;;;;20.38;2.35;;;;;;;;;;5089336;28;20048;-67
2023/12/30 06:19:29;;;;;;;11.80;2.13;;;;;;;;;;5099619;28;20064;-67
2023/12/30 06:21:55;;;;;;;12.35;2.13;;;;;;;;;;5109834;28;20032;-67
2023/12/30 06:24:25;;;;;;;13.13;1.73;;;;;;;;;;5108033;28;20615;-67
2023/12/30 06:26:51;;;;;;;9.85;1.67;;;;;;;;;;5093927;28;20036;-67
2023/12/30 06:29:18;;;;;;;16.02;2.65;;;;;;;;;;5087829;28;20074;-67
2023/12/30 06:31:45;;;;;;;14.05;3.08;;;;;;;;;;5089255;28;20052;-67
2023/12/30 06:34:11;;;;;;;8.52;1.85;;;;;;;;;;5089578;28;20126;-67
2023/12/30 06:36:37;;;;;;;13.73;2.30;;;;;;;;;;5089621;28;20093;-67
2023/12/30 06:39:05;;;;;;;9.52;1.70;;;;;;;;;;5088894;28;20044;-67
2023/12/30 06:41:31;;;;;;;14.48;1.98;;;;;;;;;;5089418;28;20044;-67
2023/12/30 06:43:57;;;;;;;10.70;1.65;;;;;;;;;;5089424;28;20044;-67
2023/12/30 06:46:23;;;;;;;10.57;2.03;;;;;;;;;;5088894;28;20046;-67
2023/12/30 06:48:49;;;;;;;9.93;2.20;;;;;;;;;;5089125;28;20546;-67
2023/12/30 06:51:15;;;;;;;13.32;1.80;;;;;;;;;;5089270;28;20089;-67
2023/12/30 06:53:41;;;;;;;11.88;2.05;;;;;;;;;;5088956;28;20040;-67
2023/12/30 06:56:08;;;;;;;16.20;2.50;;;;;;;;;;5089286;28;20044;-67
2023/12/30 06:58:34;;;;;;;15.73;2.15;;;;;;;;;;5088785;28;20506;-67
2023/12/30 07:01:00;;;;;;;13.63;1.77;;;;;;;;;;5088839;28;20137;-67
2023/12/30 07:03:26;;;;;;;16.85;2.20;;;;;;;;;;5089161;28;20024;-67
2023/12/30 07:05:52;;;;;;;12.27;1.85;;;;;;;;;;5090616;28;20036;-67
2023/12/30 07:08:18;;;;;;;16.33;2.10;;;;;;;;;;5092551;28;20538;-67
2023/12/30 07:10:44;;;;;;;12.95;2.05;;;;;;;;;;5090994;28;20127;-67
2023/12/30 07:13:10;;;;;;;11.88;2.63;;;;;;;;;;5092882;28;20075;-67
2023/12/30 07:15:36;;;;;;;13.25;1.80;;;;;;;;;;5092896;28;20040;-67
2023/12/30 07:18:02;;;;;;;12.48;1.60;;;;;;;;;;5091983;28;20036;-67
2023/12/30 07:20:28;;;;;;;18.13;2.50;;;;;;;;;;5110677;28;20039;-67
2023/12/30 07:22:55;;;;;;;14.35;2.13;;;;;;;;;;5112857;28;20587;-67
2023/12/30 07:25:21;;;;;;;10.30;1.63;;;;;;;;;;5108099;28;20036;-67
2023/12/30 07:27:47;;;;;;;14.65;2.20;;;;;;;;;;5092482;28;20048;-67
2023/12/30 07:30:13;;;;;;;15.15;1.75;;;;;;;;;;5092147;28;20032;-67
2023/12/30 07:32:39;;;;;;;11.80;1.98;;;;;;;;;;5090628;28;20044;-67
2023/12/30 07:35:06;;;;;;;14.52;1.98;;;;;;;;;;5092054;28;20086;-67
2023/12/30 07:37:32;;;;;;;15.80;1.88;;;;;;;;;;5090574;28;20036;-67
2023/12/30 07:39:59;;;;;;;14.65;2.20;;;;;;;;;;5091637;28;20067;-67
2023/12/30 07:42:25;;;;;;;12.18;2.47;;;;;;;;;;5090683;28;20501;-67
2023/12/30 07:44:52;;;;;;;17.15;1.95;;;;;;;;;;5090683;28;20048;-67
2023/12/30 07:47:18;;;;;;;9.07;2.33;;;;;;;;;;5091644;28;20032;-67
2023/12/30 07:49:44;;;;;;;8.00;1.88;;;;;;;;;;5092124;28;20089;-67
2023/12/30 07:52:10;;;;;;;12.27;1.88;;;;;;;;;;5091961;28;20086;-67
2023/12/30 07:54:36;;;;;;;8.90;2.30;;;;;;;;;;5091530;28;20165;-67
2023/12/30 07:57:03;;;;;;;16.20;2.30;;;;;;;;;;5091642;28;20043;-67
2023/12/30 07:59:29;;;;;;;10.32;2.00;;;;;;;;;;5091847;28;20067;-67
2023/12/30 08:01:58;;;;;;;19.98;2.30;;;;;;;;;;5091462;28;20043;-67
2023/12/30 08:04:24;;;;;;;15.68;1.85;;;;;;;;;;5092130;28;20039;-67
2023/12/30 08:06:50;;;;;;;10.73;1.90;;;;;;;;;;5091448;28;20043;-67
2023/12/30 08:09:17;;;;;;;7.10;2.13;;;;;;;;;;5091213;28;20078;-67
2023/12/30 08:11:43;;;;;;;12.30;2.00;;;;;;;;;;5091711;28;20059;-67
2023/12/30 08:14:09;;;;;;;13.18;2.10;;;;;;;;;;5091440;28;20046;-67
2023/12/30 08:16:36;;;;;;;17.23;2.30;;;;;;;;;;5089580;28;20055;-67
2023/12/30 08:19:05;;;;;;;11.68;1.88;;;;;;;;;;5097875;28;20074;-67
2023/12/30 08:21:31;;;;;;;12.45;1.80;;;;;;;;;;5111648;28;20047;-67
2023/12/30 08:23:58;;;;;;;12.98;1.92;;;;;;;;;;5111307;28;20058;-67
2023/12/30 08:26:28;;;;;;;14.10;2.33;;;;;;;;;;5099493;28;20040;-67
2023/12/30 08:28:57;;;;;;;12.70;2.30;;;;;;;;;;5090776;28;20494;-67
2023/12/30 08:31:23;;;;;;;10.35;1.75;;;;;;;;;;5090869;28;20043;-67
2023/12/30 08:33:50;;;;;;;10.30;2.47;;;;;;;;;;5091145;28;20047;-67
2023/12/30 08:36:16;;;;;;;13.55;2.50;;;;;;;;;;5091035;28;20126;-67
2023/12/30 08:38:42;;;;;;;10.05;2.10;;;;;;;;;;5090506;28;20042;-67
2023/12/30 08:41:14;;;;;;;13.07;2.80;;;;;;;;;;5090988;28;20044;-67
2023/12/30 08:43:40;;;;;;;17.80;2.28;;;;;;;;;;5091062;28;20048;-67
2023/12/30 08:46:06;;;;;;;17.83;2.63;;;;;;;;;;5090693;28;20083;-67
2023/12/30 08:48:32;;;;;;;14.77;2.40;;;;;;;;;;5089369;28;20076;-67
2023/12/30 08:50:58;;;;;;;10.88;2.15;;;;;;;;;;5089372;28;20109;-67
2023/12/30 08:53:24;;;;;;;12.20;2.10;;;;;;;;;;5090521;28;20406;-67
2023/12/30 08:55:55;;;;;;;12.32;2.15;;;;;;;;;;5090912;28;20044;-67
2023/12/30 08:58:21;;;;;;;11.88;2.58;;;;;;;;;;5090321;28;20056;-67
2023/12/30 09:00:48;;;;;;;9.73;2.10;;;;;;;;;;5090343;28;20054;-67
2023/12/30 09:03:14;;;;;;;12.80;2.20;;;;;;;;;;5090414;28;20035;-67
2023/12/30 09:05:41;;;;;;;10.80;2.72;;;;;;;;;;5090444;28;20505;-67
2023/12/30 09:08:07;;;;;;;8.90;2.45;;;;;;;;;;5090149;28;20109;-67
2023/12/30 09:10:33;;;;;;;11.98;2.83;;;;;;;;;;5090474;28;20040;-67
2023/12/30 09:12:59;;;;;;;14.30;2.47;;;;;;;;;;5089129;28;20043;-67
2023/12/30 09:15:25;;;;;;;12.52;2.25;;;;;;;;;;5089850;28;20047;-67
2023/12/30 09:17:51;;;;;;;13.55;3.00;;;;;;;;;;5090257;28;20127;-67
2023/12/30 09:20:18;;;;;;;12.10;3.30;;;;;;;;;;5107201;28;20071;-67
2023/12/30 09:22:44;;;;;;;12.43;3.05;;;;;;;;;;5110227;28;20042;-67
2023/12/30 09:25:10;;;;;;;13.43;3.08;;;;;;;;;;5107719;28;20039;-67
2023/12/30 09:27:36;;;;;;;12.82;2.20;;;;;;;;;;5089903;28;20040;-67
2023/12/30 09:30:02;;;;;;;11.82;2.35;;;;;;;;;;5089582;28;20032;-67
2023/12/30 09:32:28;;;;;;;12.60;2.28;;;;;;;;;;5090198;28;20062;-67
2023/12/30 09:34:54;;;;;;;10.68;2.53;;;;;;;;;;5088611;28;20048;-67
2023/12/30 09:37:20;;;;;;;6.90;2.15;;;;;;;;;;5089652;28;20036;-67
2023/12/30 09:39:47;;;;;;;12.07;2.25;;;;;;;;;;5089815;28;20115;-67
2023/12/30 09:42:13;;;;;;;10.40;1.70;;;;;;;;;;5090007;28;20547;-67
2023/12/30 09:44:40;;;;;;;11.85;2.40;;;;;;;;;;5089341;28;20051;-67
2023/12/30 09:47:11;;;;;;;14.02;3.15;;;;;;;;;;5089939;28;20035;-67
2023/12/30 09:49:37;;;;;;;10.75;2.25;;;;;;;;;;5089884;28;20098;-67
2023/12/30 09:52:06;;;;;;;12.13;2.65;;;;;;;;;;5089829;28;20036;-67
2023/12/30 09:54:32;;;;;;;12.02;2.25;;;;;;;;;;5089921;28;20076;-67
2023/12/30 09:56:59;;;;;;;11.57;2.45;;;;;;;;;;5089732;28;20039;-67
2023/12/30 09:59:30;;;;;;;12.45;2.08;;;;;;;;;;5088986;28;20403;-67
2023/12/30 10:01:56;;;;;;;14.82;2.35;;;;;;;;;;5088628;28;20047;-67
2023/12/30 10:04:22;;;;;;;8.88;1.73;;;;;;;;;;5089820;28;20119;-67
2023/12/30 10:06:52;;;;;;;10.02;2.13;;;;;;;;;;5089236;28;20045;-67
2023/12/30 10:09:19;;;;;;;12.25;1.88;;;;;;;;;;5088329;28;20059;-67
2023/12/30 10:11:45;;;;;;;15.18;2.47;;;;;;;;;;5089803;28;20048;-67
2023/12/30 10:14:11;;;;;;;14.32;3.60;;;;;;;;;;5089373;28;20043;-67
2023/12/30 10:16:37;;;;;;;10.95;1.88;;;;;;;;;;5089686;28;20048;-67
2023/12/30 10:19:08;;;;;;;14.50;3.03;;;;;;;;;;5095922;28;20074;-67
2023/12/30 10:21:35;;;;;;;12.25;2.08;;;;;;;;;;5109475;28;20084;-67
2023/12/30 10:24:04;;;;;;;11.40;2.47;;;;;;;;;;5109985;28;20071;-67
2023/12/30 10:26:30;;;;;;;10.48;1.98;;;;;;;;;;5096877;28;20048;-67
2023/12/30 10:28:56;;;;;;;9.30;2.20;;;;;;;;;;5089018;28;20119;-67
2023/12/30 10:31:22;;;;;;;11.20;2.38;;;;;;;;;;5088307;28;20132;-67
2023/12/30 10:33:48;;;;;;;7.78;2.20;;;;;;;;;;5089570;28;20087;-67
2023/12/30 10:36:14;;;;;;;10.38;2.22;;;;;;;;;;5089131;28;20117;-67
2023/12/30 10:38:41;;;;;;;13.88;3.10;;;;;;;;;;5089215;28;20044;-67
2023/12/30 10:41:07;;;;;;;10.25;2.50;;;;;;;;;;5091705;28;20154;-67
2023/12/30 10:43:33;;;;;;;16.58;2.53;;;;;;;;;;5092779;28;20040;-67
2023/12/30 10:46:00;;;;;;;15.65;3.03;;;;;;;;;;5093361;28;20050;-67
2023/12/30 10:48:29;;;;;;;17.20;3.13;;;;;;;;;;5093152;28;20097;-67
2023/12/30 10:50:56;;;;;;;12.93;2.83;;;;;;;;;;5092910;28;20439;-67
2023/12/30 10:53:39;;;;;;;17.08;3.95;;;;;;;;;;5093286;28;20040;-67
2023/12/30 10:56:07;;;;;;;18.90;4.22;;;;;;;;;;5093152;28;20052;-67
2023/12/30 10:58:36;;;;;;;14.43;3.97;;;;;;;;;;5092211;28;20139;-67
2023/12/30 11:01:06;;;;;;;12.93;3.97;;;;;;;;;;5091409;28;20055;-67
2023/12/30 11:03:33;;;;;;;14.45;3.90;;;;;;;;;;5093112;28;20474;-67
2023/12/30 11:06:08;;;;;;;11.75;3.63;;;;;;;;;;5092462;28;20032;-67
2023/12/30 11:08:35;;;;;;;14.57;4.07;;;;;;;;;;5093033;28;20089;-67
2023/12/30 11:11:04;;;;;;;15.57;4.22;;;;;;;;;;5092829;28;20044;-67
2023/12/30 11:13:42;;;;;;;16.90;4.32;;;;;;;;;;5092414;28;20066;-67
2023/12/30 11:16:31;;;;;;;14.52;4.95;;;;;;;;;;5092655;28;20068;-67
2023/12/30 11:18:58;;;;;;;13.52;4.03;;;;;;;;;;5097868;28;20035;-67
2023/12/30 11:21:42;;;;;;;11.82;3.70;;;;;;;;;;5112848;28;20418;-67
2023/12/30 11:24:09;;;;;;;11.55;3.20;;;;;;;;;;5112790;28;20039;-67
2023/12/30 11:26:37;;;;;;;14.60;3.85;;;;;;;;;;5099319;28;20478;-67
2023/12/30 11:29:03;;;;;;;13.82;4.03;;;;;;;;;;5090672;28;20418;-67
2023/12/30 11:31:31;;;;;;;17.67;3.55;;;;;;;;;;5092509;28;20421;-67
2023/12/30 11:33:59;;;;;;;18.52;3.58;;;;;;;;;;5092262;28;20052;-67
2023/12/30 11:36:26;;;;;;;16.88;4.35;;;;;;;;;;5091960;28;20498;-67
2023/12/30 11:38:54;;;;;;;19.45;3.80;;;;;;;;;;5091842;28;20051;-67
2023/12/30 11:41:20;;;;;;;9.10;3.28;;;;;;;;;;5090937;28;20044;-67
2023/12/30 11:43:46;;;;;;;21.08;3.85;;;;;;;;;;5091908;28;20121;-67
2023/12/30 11:46:13;;;;;;;12.27;3.05;;;;;;;;;;5091800;28;20471;-67
2023/12/30 11:48:41;;;;;;;12.75;4.03;;;;;;;;;;5091951;28;20048;-67
2023/12/30 11:51:07;;;;;;;13.40;3.05;;;;;;;;;;5091356;28;20070;-67
2023/12/30 11:53:34;;;;;;;15.82;3.45;;;;;;;;;;5092200;28;20040;-67
2023/12/30 11:56:01;;;;;;;10.95;2.75;;;;;;;;;;5090726;28;20083;-67
2023/12/30 11:58:28;;;;;;;16.13;2.80;;;;;;;;;;5091328;28;20044;-67
2023/12/30 12:00:54;;;;;;;14.35;3.08;;;;;;;;;;5090624;28;20490;-67
2023/12/30 12:03:20;;;;;;;10.13;2.70;;;;;;;;;;5091741;28;20047;-67
2023/12/30 12:05:46;;;;;;;15.88;3.55;;;;;;;;;;5091398;28;20040;-67
2023/12/30 12:08:12;;;;;;;12.90;2.35;;;;;;;;;;5091351;28;20055;-67
2023/12/30 12:10:38;;;;;;;12.48;2.85;;;;;;;;;;5090095;28;20047;-67
2023/12/30 12:13:09;;;;;;;12.98;3.05;;;;;;;;;;5091472;28;20154;-67
2023/12/30 12:15:35;;;;;;;14.45;2.75;;;;;;;;;;5090241;28;20046;-67
2023/12/30 12:18:01;;;;;;;15.45;3.38;;;;;;;;;;5091479;28;20168;-67
2023/12/30 12:20:28;;;;;;;9.18;2.45;;;;;;;;;;5107914;28;20055;-67
2023/12/30 12:22:57;;;;;;;14.20;3.38;;;;;;;;;;5111603;28;20069;-67
2023/12/30 12:25:23;;;;;;;16.25;2.90;;;;;;;;;;5108228;28;20038;-67
2023/12/30 12:27:49;;;;;;;17.63;2.72;;;;;;;;;;5091061;28;20473;-67
2023/12/30 12:30:16;;;;;;;9.88;2.83;;;;;;;;;;5091048;28;20052;-67
2023/12/30 12:32:42;;;;;;;16.85;3.10;;;;;;;;;;5091424;28;20036;-67
2023/12/30 12:35:08;;;;;;;16.38;2.97;;;;;;;;;;5090877;28;20040;-67
2023/12/30 12:37:34;;;;;;;11.25;2.72;;;;;;;;;;5091073;28;20036;-67
2023/12/30 12:40:00;;;;;;;16.88;3.40;;;;;;;;;;5091062;28;20044;-67
2023/12/30 12:42:26;;;;;;;14.05;3.03;;;;;;;;;;5090517;28;20097;-67
2023/12/30 12:44:52;;;;;;;20.65;3.55;;;;;;;;;;5090736;28;20538;-67
2023/12/30 12:47:18;;;;;;;18.35;3.08;;;;;;;;;;5089646;28;20077;-67
2023/12/30 12:49:44;;;;;;;10.70;3.47;;;;;;;;;;5089128;28;20079;-67
2023/12/30 12:52:10;;;;;;;18.83;4.80;;;;;;;;;;5090869;28;20065;-67
2023/12/30 12:54:36;;;;;;;13.77;3.72;;;;;;;;;;5090874;28;20043;-67
2023/12/30 12:57:02;;;;;;;17.95;4.22;;;;;;;;;;5090352;28;20163;-67
2023/12/30 12:59:28;;;;;;;16.85;3.88;;;;;;;;;;5090707;28;20470;-67
2023/12/30 13:01:54;;;;;;;20.77;3.95;;;;;;;;;;5090757;28;20498;-67
2023/12/30 13:04:21;;;;;;;18.38;4.38;;;;;;;;;;5089602;28;20067;-67
2023/12/30 13:06:47;;;;;;;18.55;3.45;;;;;;;;;;5090274;28;20036;-67
2023/12/30 13:11:59;;;;;;;20.42;4.50;;;;;;;;;;5090246;28;20498;-67
2023/12/30 13:14:27;;;;;;;20.92;4.70;;;;;;;;;;5090620;28;20499;-67
2023/12/30 13:16:57;;;;;;;13.93;3.85;;;;;;;;;;5090476;28;20082;-67
2023/12/30 13:19:23;;;;;;;15.88;4.20;;;;;;;;;;5099183;28;20196;-67
2023/12/30 13:21:50;;;;;;;13.10;3.85;;;;;;;;;;5110795;28;20501;-67
2023/12/30 13:24:17;;;;;;;19.38;4.50;;;;;;;;;;5110487;28;20050;-67
2023/12/30 13:26:43;;;;;;;17.00;4.78;;;;;;;;;;5095599;28;20043;-67
2023/12/30 13:29:13;;;;;;;18.15;5.68;;;;;;;;;;5090161;28;20220;-67
2023/12/30 13:31:40;;;;;;;14.85;4.68;;;;;;;;;;5090274;28;20051;-67
2023/12/30 13:34:06;;;;;;;15.30;4.38;;;;;;;;;;5089920;28;20398;-67
2023/12/30 13:36:35;;;;;;;20.10;5.63;;;;;;;;;;5090240;28;20144;-67
2023/12/30 13:39:10;;;;;;;19.38;5.10;;;;;;;;;;5089672;28;20079;-67
2023/12/30 13:41:36;;;;;;;16.30;4.32;;;;;;;;;;5089751;28;20047;-67
2023/12/30 13:44:04;;;;;;;22.73;5.57;;;;;;;;;;5090046;28;20040;-67
2023/12/30 13:51:36;;;;;;;18.25;5.20;;;;;;;;;;5088443;28;20098;-65
2023/12/30 13:54:02;;;;;;;23.55;5.90;;;;;;;;;;5088805;28;20051;-65
2023/12/30 13:56:32;;;;;;;19.13;5.80;;;;;;;;;;5089513;28;20046;-65
2023/12/30 13:58:58;;;;;;;22.77;5.93;;;;;;;;;;5089380;28;20158;-65
2023/12/30 14:01:25;;;;;;;19.60;5.53;;;;;;;;;;5089800;28;20107;-64
2023/12/30 14:03:52;;;;;;;21.88;6.40;;;;;;;;;;5089440;28;20040;-65
2023/12/30 14:06:21;;;;;;;24.42;6.18;;;;;;;;;;5089771;28;20055;-64
2023/12/30 14:08:49;;;;;;;15.10;5.70;;;;;;;;;;5089587;28;20068;-64
2023/12/30 14:11:31;;;;;;;23.25;6.85;;;;;;;;;;5089469;28;20491;-64
2023/12/30 14:13:58;;;;;;;24.15;7.25;;;;;;;;;;5090075;28;20616;-64
2023/12/30 14:16:24;;;;;;;23.63;6.72;;;;;;;;;;5093941;28;20044;-64
2023/12/30 14:18:50;;;;;;;23.02;7.28;;;;;;;;;;5098020;28;20075;-64
2023/12/30 14:21:17;;;;;;;18.40;6.00;;;;;;;;;;5114026;28;20035;-64
2023/12/30 14:23:43;;;;;;;17.17;5.90;;;;;;;;;;5114359;28;20388;-65
2023/12/30 14:26:10;;;;;;;23.60;7.07;;;;;;;;;;5103610;28;20045;-65
2023/12/30 14:28:36;;;;;;;22.50;7.05;;;;;;;;;;5093225;28;20508;-65
2023/12/30 14:31:02;;;;;;;23.77;6.05;;;;;;;;;;5093337;28;20036;-65
2023/12/30 14:33:28;;;;;;;19.40;5.47;;;;;;;;;;5092999;28;20111;-65
2023/12/30 14:35:54;;;;;;;16.88;5.95;;;;;;;;;;5093576;28;20135;-65
2023/12/30 14:38:20;;;;;;;21.75;6.53;;;;;;;;;;5093214;28;20051;-65